Time;durP1;ratioP1;P1;durP2;ratioP2;P2;SDS_P1;SDS_P2;PMS_P1;PMS_P2;Temp;Humidity;BMP_temperature;BMP_pressure;BME280_temperature;BME280_humidity;BME280_pressure;Samples;Min_cycle;Max_cycle;Signal;HPM_P1;HPM_P2
2023/01/24 00:02:10;;;;;;;14.50;10.03;;;3.10;99.90;;;;;;10351694;28;20872;-70
2023/01/24 00:07:11;;;;;;;14.57;9.33;;;3.20;99.90;;;;;;10335225;28;20606;-70
2023/01/24 00:12:12;;;;;;;13.00;8.93;;;3.20;99.90;;;;;;10348561;28;20227;-70
2023/01/24 00:17:12;;;;;;;13.70;9.27;;;3.20;99.90;;;;;;10344866;28;20232;-70
2023/01/24 00:22:13;;;;;;;14.30;9.33;;;3.20;99.90;;;;;;10341400;28;20591;-70
2023/01/24 00:27:14;;;;;;;14.20;9.67;;;3.10;99.90;;;;;;10354175;28;20233;-70
2023/01/24 00:32:14;;;;;;;13.70;9.47;;;3.10;99.90;;;;;;10342770;28;20244;-69
2023/01/24 00:37:15;;;;;;;13.63;8.73;;;3.10;99.90;;;;;;10354781;28;20225;-71
2023/01/24 00:42:16;;;;;;;14.77;9.70;;;3.10;99.90;;;;;;10344181;28;20857;-71
2023/01/24 00:47:16;;;;;;;12.93;9.07;;;3.10;99.90;;;;;;10346105;28;20241;-71
2023/01/24 00:52:17;;;;;;;13.27;9.60;;;3.10;99.90;;;;;;10356718;28;20263;-70
2023/01/24 00:57:17;;;;;;;13.43;9.37;;;3.10;99.90;;;;;;10350367;28;20222;-70
2023/01/24 01:02:18;;;;;;;14.20;9.47;;;3.10;99.90;;;;;;10349137;28;20269;-71
2023/01/24 01:07:20;;;;;;;15.43;9.67;;;3.10;99.90;;;;;;10354623;28;20759;-70
2023/01/24 01:12:20;;;;;;;14.50;9.53;;;3.10;99.90;;;;;;10354441;28;20311;-70
2023/01/24 01:17:21;;;;;;;11.37;8.47;;;3.00;99.90;;;;;;10350141;28;20253;-70
2023/01/24 01:22:22;;;;;;;12.07;8.73;;;3.00;99.90;;;;;;10342187;28;20221;-70
2023/01/24 01:27:22;;;;;;;14.47;9.83;;;3.00;99.90;;;;;;10348093;28;20236;-69
2023/01/24 01:32:23;;;;;;;13.07;9.20;;;3.00;99.90;;;;;;10353343;28;20232;-70
2023/01/24 01:37:24;;;;;;;13.00;8.70;;;3.00;99.90;;;;;;10350506;28;20226;-70
2023/01/24 01:42:24;;;;;;;11.73;8.60;;;3.00;99.90;;;;;;10361453;28;20225;-70
2023/01/24 01:47:34;;;;;;;13.33;8.73;;;3.00;99.90;;;;;;10352002;28;20233;-70
2023/01/24 01:52:38;;;;;;;12.97;9.40;;;3.00;99.90;;;;;;10352246;28;20226;-70
2023/01/24 01:57:40;;;;;;;13.23;9.07;;;3.00;99.90;;;;;;10347522;28;20249;-70
2023/01/24 02:02:44;;;;;;;14.00;9.43;;;3.00;99.90;;;;;;10354114;28;20276;-70
2023/01/24 02:07:51;;;;;;;12.70;8.83;;;3.00;99.90;;;;;;10338137;28;20229;-70
2023/01/24 02:12:54;;;;;;;14.10;9.70;;;3.00;99.90;;;;;;10348466;28;20233;-71
2023/01/24 02:17:55;;;;;;;14.57;9.57;;;3.00;99.90;;;;;;10348018;28;20706;-70
2023/01/24 02:23:21;;;;;;;13.10;9.53;;;3.00;99.90;;;;;;10348442;28;20304;-71
2023/01/24 02:28:22;;;;;;;12.93;9.10;;;3.00;99.90;;;;;;10358158;28;20309;-70
2023/01/24 02:33:23;;;;;;;13.87;9.60;;;2.90;99.90;;;;;;10352745;28;20321;-70
2023/01/24 02:38:28;;;;;;;14.30;9.23;;;3.00;99.90;;;;;;10355095;28;20656;-69
2023/01/24 02:43:30;;;;;;;13.47;9.73;;;3.00;99.90;;;;;;10350468;28;20234;-70
2023/01/24 02:48:31;;;;;;;12.23;8.70;;;3.00;99.90;;;;;;10353582;28;20237;-70
2023/01/24 02:53:31;;;;;;;15.17;9.93;;;3.00;99.90;;;;;;10349180;28;20221;-69
2023/01/24 02:58:32;;;;;;;12.80;9.60;;;3.00;99.90;;;;;;10357675;28;20305;-70
2023/01/24 03:03:32;;;;;;;14.07;10.00;;;3.00;99.90;;;;;;10349730;28;20579;-69
2023/01/24 03:08:34;;;;;;;14.30;9.57;;;3.00;99.90;;;;;;10353945;28;20237;-70
2023/01/24 03:34:52;;;;;;;11.07;8.60;;;3.10;99.90;;;;;;10352845;28;20265;-71
2023/01/24 03:39:59;;;;;;;12.80;8.73;;;3.10;99.90;;;;;;10345509;28;20312;-70
2023/01/24 03:45:01;;;;;;;11.47;8.27;;;3.10;99.90;;;;;;10344639;28;20321;-70
2023/01/24 03:55:21;;;;;;;11.97;8.60;;;3.10;99.90;;;;;;10346957;28;20221;-70
2023/01/24 04:00:21;;;;;;;13.00;9.17;;;3.10;99.90;;;;;;10347890;28;20197;-70
2023/01/24 04:05:22;;;;;;;11.00;8.67;;;3.10;99.90;;;;;;10346207;28;20253;-70
2023/01/24 04:10:23;;;;;;;13.30;8.10;;;3.10;99.90;;;;;;10348777;28;20182;-70
2023/01/24 04:15:27;;;;;;;12.13;8.87;;;3.10;99.90;;;;;;10347126;28;20278;-70
2023/01/24 04:20:30;;;;;;;12.10;8.73;;;3.00;99.90;;;;;;10338675;28;20226;-70
2023/01/24 04:25:30;;;;;;;12.97;9.30;;;3.00;99.90;;;;;;10346559;28;20853;-70
2023/01/24 04:30:31;;;;;;;13.27;9.37;;;3.00;99.90;;;;;;10347739;28;20316;-70
2023/01/24 04:35:32;;;;;;;13.07;9.47;;;3.00;99.90;;;;;;10355319;28;20680;-69
2023/01/24 04:40:32;;;;;;;13.50;10.03;;;3.00;99.90;;;;;;10338601;28;20252;-70
2023/01/24 04:45:33;;;;;;;12.60;9.47;;;3.10;99.90;;;;;;10346621;28;20763;-70
2023/01/24 04:50:33;;;;;;;13.73;9.83;;;3.00;99.90;;;;;;10345961;28;20320;-69
2023/01/24 04:55:35;;;;;;;13.53;9.17;;;3.00;99.90;;;;;;10350784;28;20216;-70
2023/01/24 05:00:35;;;;;;;12.30;9.47;;;3.00;99.90;;;;;;10351631;28;20221;-70
2023/01/24 05:05:36;;;;;;;14.03;9.13;;;3.00;99.90;;;;;;10353581;28;20225;-70
2023/01/24 05:10:36;;;;;;;12.37;9.37;;;3.00;99.90;;;;;;10355741;28;20225;-70
2023/01/24 05:15:37;;;;;;;13.00;9.00;;;3.00;99.90;;;;;;10357864;28;20224;-69
2023/01/24 05:20:37;;;;;;;13.23;9.27;;;3.00;99.90;;;;;;10353886;28;20267;-71
2023/01/24 05:25:38;;;;;;;13.23;9.67;;;3.10;99.90;;;;;;10353150;28;20640;-71
2023/01/24 05:30:39;;;;;;;14.60;9.53;;;3.10;99.90;;;;;;10348914;28;20275;-70
2023/01/24 05:35:40;;;;;;;12.73;9.50;;;3.00;99.90;;;;;;10352358;28;20221;-70
2023/01/24 05:40:41;;;;;;;12.57;9.10;;;3.00;99.90;;;;;;10353430;28;20225;-70
2023/01/24 05:45:41;;;;;;;12.23;9.17;;;3.00;99.90;;;;;;10352296;28;20225;-70
2023/01/24 05:50:42;;;;;;;12.57;9.43;;;3.00;99.90;;;;;;10353782;28;20229;-69
2023/01/24 05:55:42;;;;;;;13.57;9.80;;;3.10;99.90;;;;;;10350318;28;20218;-69
2023/01/24 06:00:44;;;;;;;13.37;9.17;;;3.10;99.90;;;;;;10354346;28;20217;-70
2023/01/24 06:05:49;;;;;;;12.93;9.10;;;3.10;99.90;;;;;;10349763;28;20926;-70
2023/01/24 06:10:50;;;;;;;13.43;8.47;;;3.10;99.90;;;;;;10354251;28;20223;-70
2023/01/24 06:15:50;;;;;;;13.77;9.53;;;3.10;99.90;;;;;;10347750;28;20244;-70
2023/01/24 06:20:51;;;;;;;13.23;9.57;;;3.10;99.90;;;;;;10354397;28;20248;-70
2023/01/24 06:25:52;;;;;;;14.60;9.73;;;3.10;99.90;;;;;;10348625;28;20228;-70
2023/01/24 06:31:14;;;;;;;12.43;9.47;;;3.10;99.90;;;;;;10361409;28;20217;-70
2023/01/24 06:36:34;;;;;;;12.53;9.00;;;3.10;99.90;;;;;;10352538;28;20218;-69
2023/01/24 06:41:35;;;;;;;13.40;8.90;;;3.10;99.90;;;;;;10356564;28;20542;-70
2023/01/24 06:46:36;;;;;;;14.03;9.10;;;3.10;99.90;;;;;;10352940;28;20279;-70
2023/01/24 06:51:37;;;;;;;12.67;8.93;;;3.10;99.90;;;;;;10349458;28;20677;-70
2023/01/24 06:56:37;;;;;;;14.57;8.97;;;3.10;99.90;;;;;;10349901;28;20744;-70
2023/01/24 07:01:38;;;;;;;12.00;8.87;;;3.10;99.90;;;;;;10350440;28;20432;-71
2023/01/24 07:06:38;;;;;;;12.07;8.17;;;3.20;99.90;;;;;;10350933;28;20221;-71
2023/01/24 07:11:39;;;;;;;12.47;8.73;;;3.20;99.90;;;;;;10352755;28;20221;-70
2023/01/24 07:16:39;;;;;;;13.33;8.63;;;3.20;99.90;;;;;;10348457;28;20232;-71
2023/01/24 07:21:40;;;;;;;11.60;8.27;;;3.20;99.90;;;;;;10351670;28;20585;-70
2023/01/24 07:26:42;;;;;;;10.67;7.77;;;3.20;99.90;;;;;;10351276;28;20262;-70
2023/01/24 07:31:42;;;;;;;12.50;8.27;;;3.20;99.90;;;;;;10346578;28;20301;-70
2023/01/24 07:36:45;;;;;;;12.00;8.30;;;3.20;99.90;;;;;;10350952;28;20312;-70
2023/01/24 07:41:45;;;;;;;10.37;7.77;;;3.20;99.90;;;;;;10346867;28;20708;-70
2023/01/24 07:46:46;;;;;;;11.20;8.13;;;3.30;99.90;;;;;;10349817;28;20230;-70
2023/01/24 07:51:48;;;;;;;10.80;7.40;;;3.30;99.90;;;;;;10346043;28;20260;-69
2023/01/24 07:56:48;;;;;;;10.80;6.93;;;3.30;99.90;;;;;;10351568;28;20670;-70
2023/01/24 08:01:49;;;;;;;9.67;6.87;;;3.40;99.90;;;;;;10351295;28;20285;-70
2023/01/24 08:12:09;;;;;;;11.17;7.50;;;3.40;99.90;;;;;;10345139;28;20222;-70
2023/01/24 08:17:10;;;;;;;10.07;6.93;;;3.40;99.90;;;;;;10341422;28;20222;-71
2023/01/24 08:22:11;;;;;;;12.47;7.57;;;3.40;99.90;;;;;;10344088;28;20218;-71
2023/01/24 08:27:11;;;;;;;10.67;7.30;;;3.40;99.90;;;;;;10359309;28;20226;-69
2023/01/24 08:32:12;;;;;;;10.17;7.67;;;3.50;99.90;;;;;;10340568;28;20744;-70
2023/01/24 08:37:12;;;;;;;10.03;7.20;;;3.50;99.90;;;;;;10346893;28;20683;-70
2023/01/24 08:42:13;;;;;;;12.70;7.27;;;3.60;99.90;;;;;;10357680;28;20245;-69
2023/01/24 08:47:13;;;;;;;9.77;6.97;;;3.60;99.90;;;;;;10358556;28;20259;-70
2023/01/24 08:52:17;;;;;;;10.33;7.20;;;3.60;99.90;;;;;;10352789;28;20227;-70
2023/01/24 08:57:17;;;;;;;11.30;6.80;;;3.70;99.90;;;;;;10365364;28;20275;-70
2023/01/24 09:02:18;;;;;;;9.60;7.10;;;3.80;99.90;;;;;;10353448;28;20272;-70
2023/01/24 09:07:19;;;;;;;9.43;7.47;;;3.70;99.90;;;;;;10341418;28;20318;-69
2023/01/24 09:12:19;;;;;;;9.03;7.10;;;3.80;99.90;;;;;;10351017;28;20229;-70
2023/01/24 09:17:20;;;;;;;9.67;7.07;;;3.80;99.90;;;;;;10343059;28;20226;-70
2023/01/24 09:22:20;;;;;;;9.13;6.60;;;3.80;99.90;;;;;;10354537;28;20256;-71
2023/01/24 09:27:21;;;;;;;9.13;6.47;;;3.90;99.90;;;;;;10357288;28;20745;-70
2023/01/24 09:32:21;;;;;;;8.27;6.07;;;3.80;99.90;;;;;;10337289;28;20244;-70
2023/01/24 09:37:22;;;;;;;8.53;6.37;;;3.90;99.90;;;;;;10358355;28;20217;-70
2023/01/24 09:42:40;;;;;;;11.10;6.33;;;4.00;99.90;;;;;;10351042;28;20729;-70
2023/01/24 09:47:44;;;;;;;10.87;6.73;;;4.00;99.90;;;;;;10352087;28;20229;-70
2023/01/24 09:52:47;;;;;;;11.13;7.27;;;3.90;99.90;;;;;;10354300;28;20659;-70
2023/01/24 09:58:16;;;;;;;8.07;5.80;;;3.90;99.90;;;;;;10351122;28;20221;-70
2023/01/24 10:03:22;;;;;;;9.43;6.87;;;3.90;99.90;;;;;;10345608;28;20276;-70
2023/01/24 10:08:50;;;;;;;10.97;7.03;;;3.80;99.90;;;;;;10353460;28;20587;-71
2023/01/24 10:14:22;;;;;;;13.60;7.63;;;3.90;99.90;;;;;;10354629;28;20236;-71
2023/01/24 10:19:57;;;;;;;11.17;7.27;;;3.90;99.90;;;;;;10355710;28;20214;-70
2023/01/24 10:25:13;;;;;;;12.37;6.80;;;4.00;99.90;;;;;;10353520;28;20729;-70
2023/01/24 10:30:20;;;;;;;8.70;7.10;;;3.90;99.90;;;;;;10347810;28;20220;-71
2023/01/24 10:35:37;;;;;;;9.53;7.60;;;3.90;99.90;;;;;;10355245;28;20720;-70
2023/01/24 10:40:52;;;;;;;9.17;6.63;;;3.80;99.90;;;;;;10352464;28;20235;-70
2023/01/24 10:46:23;;;;;;;8.57;6.80;;;3.90;99.90;;;;;;10353156;28;20229;-70
2023/01/24 10:51:24;;;;;;;9.30;6.27;;;3.90;99.90;;;;;;10349790;28;20325;-69
2023/01/24 10:56:25;;;;;;;10.57;6.53;;;3.90;99.90;;;;;;10354782;28;20304;-70
2023/01/24 11:01:33;;;;;;;8.73;6.37;;;3.90;99.90;;;;;;10350591;28;20229;-70
2023/01/24 11:06:37;;;;;;;9.40;7.13;;;4.00;99.90;;;;;;10349996;28;20257;-70
2023/01/24 11:11:46;;;;;;;7.33;6.23;;;4.00;99.90;;;;;;10354391;28;20217;-70
2023/01/24 11:16:50;;;;;;;10.93;7.10;;;4.10;99.90;;;;;;10346835;28;20231;-69
2023/01/24 11:21:53;;;;;;;9.40;5.50;;;4.10;99.90;;;;;;10357485;28;20235;-70
2023/01/24 11:26:54;;;;;;;9.90;6.60;;;3.90;99.90;;;;;;10351423;28;20217;-70
2023/01/24 11:31:56;;;;;;;9.33;6.10;;;4.00;99.90;;;;;;10345345;28;20720;-69
2023/01/24 11:37:14;;;;;;;7.23;5.70;;;4.00;99.90;;;;;;10350983;28;20228;-70
2023/01/24 11:42:31;;;;;;;9.00;5.80;;;4.00;99.90;;;;;;10345281;28;20240;-70
2023/01/24 11:47:47;;;;;;;9.03;6.73;;;3.90;99.90;;;;;;10348744;28;20263;-70
2023/01/24 11:53:09;;;;;;;11.23;6.63;;;3.90;99.90;;;;;;10349172;28;20224;-70
2023/01/24 11:58:41;;;;;;;9.27;6.63;;;4.00;99.90;;;;;;10343484;28;20316;-70
2023/01/24 12:03:44;;;;;;;7.67;6.03;;;4.10;99.90;;;;;;10348760;28;20304;-70
2023/01/24 12:08:56;;;;;;;7.73;5.87;;;4.10;99.90;;;;;;10345873;28;20328;-70
2023/01/24 12:14:30;;;;;;;10.30;5.67;;;4.20;99.90;;;;;;10348386;28;20241;-69
2023/01/24 12:19:49;;;;;;;7.97;5.27;;;4.20;99.90;;;;;;10347654;28;20233;-71
2023/01/24 12:25:18;;;;;;;10.53;5.40;;;4.10;99.90;;;;;;10345013;28;20233;-69
2023/01/24 12:30:37;;;;;;;7.00;5.67;;;4.20;99.90;;;;;;10318839;28;20231;-69
2023/01/24 12:35:46;;;;;;;7.53;5.50;;;4.20;99.90;;;;;;10346614;28;20246;-70
2023/01/24 12:41:08;;;;;;;10.23;6.33;;;4.10;99.90;;;;;;10361260;28;20228;-70
2023/01/24 12:46:27;;;;;;;5.83;4.80;;;4.20;99.90;;;;;;10343755;28;20229;-70
2023/01/24 12:51:44;;;;;;;8.87;5.40;;;4.20;99.90;;;;;;10355385;28;20558;-69
2023/01/24 12:57:13;;;;;;;9.27;6.00;;;4.20;99.90;;;;;;10345563;28;20227;-71
2023/01/24 13:02:39;;;;;;;8.70;5.67;;;4.20;99.90;;;;;;10343969;28;20231;-71
2023/01/24 13:08:10;;;;;;;7.07;5.40;;;4.20;99.90;;;;;;10345323;28;20239;-71
2023/01/24 13:13:26;;;;;;;10.17;5.90;;;4.30;99.90;;;;;;10352118;28;20696;-68
2023/01/24 13:18:53;;;;;;;7.47;6.00;;;4.30;99.90;;;;;;10347171;28;20711;-68
2023/01/24 13:24:02;;;;;;;6.43;5.10;;;4.30;99.90;;;;;;10360183;28;20213;-68
2023/01/24 13:29:17;;;;;;;8.70;5.33;;;4.30;99.90;;;;;;10349387;28;20768;-68
2023/01/24 13:34:21;;;;;;;8.93;6.23;;;4.30;99.90;;;;;;10355147;28;20302;-68
2023/01/24 13:39:35;;;;;;;10.07;6.60;;;4.40;99.90;;;;;;10353909;28;20724;-68
2023/01/24 13:44:36;;;;;;;11.00;5.63;;;4.40;99.90;;;;;;10338870;28;20572;-67
2023/01/24 13:50:01;;;;;;;7.57;5.83;;;4.40;99.90;;;;;;10352100;28;20221;-68
2023/01/24 13:55:05;;;;;;;9.37;6.73;;;4.30;99.90;;;;;;10320950;28;20280;-68
2023/01/24 14:00:08;;;;;;;9.50;6.27;;;4.20;99.90;;;;;;10347750;28;20233;-69
2023/01/24 14:05:28;;;;;;;8.73;5.83;;;4.10;99.90;;;;;;10355477;28;20214;-68
2023/01/24 14:10:39;;;;;;;10.97;6.20;;;4.10;99.90;;;;;;10355557;28;20220;-67
2023/01/24 14:15:43;;;;;;;7.87;6.23;;;4.20;99.90;;;;;;10347826;28;20229;-68
2023/01/24 14:20:47;;;;;;;9.17;6.50;;;4.20;99.90;;;;;;10353033;28;20224;-68
2023/01/24 14:25:55;;;;;;;8.23;6.40;;;4.30;99.90;;;;;;10349160;28;20860;-68
2023/01/24 14:31:03;;;;;;;9.97;6.37;;;4.30;99.90;;;;;;10346921;28;20226;-68
2023/01/24 14:36:23;;;;;;;8.60;6.07;;;4.20;99.90;;;;;;10335085;28;20221;-68
2023/01/24 14:41:29;;;;;;;8.33;5.97;;;4.10;99.90;;;;;;10356819;28;20700;-67
2023/01/24 14:46:30;;;;;;;9.83;5.83;;;4.20;99.90;;;;;;10355812;28;20712;-69
2023/01/24 14:51:30;;;;;;;11.10;6.30;;;4.20;99.90;;;;;;10358987;28;20235;-69
2023/01/24 14:56:39;;;;;;;14.50;6.00;;;4.20;99.90;;;;;;10350796;28;20229;-68
2023/01/24 15:01:40;;;;;;;8.20;5.77;;;4.30;99.90;;;;;;10350221;28;20322;-67
2023/01/24 15:06:40;;;;;;;8.20;6.10;;;4.10;99.90;;;;;;10353370;28;20711;-68
2023/01/24 15:11:42;;;;;;;9.33;5.83;;;4.20;99.90;;;;;;10348370;28;20264;-68
2023/01/24 15:16:51;;;;;;;6.60;5.10;;;4.20;99.90;;;;;;10356352;28;20618;-69
2023/01/24 15:21:54;;;;;;;6.90;5.30;;;4.10;99.90;;;;;;10332839;28;20239;-68
2023/01/24 15:26:56;;;;;;;5.97;5.10;;;4.10;99.90;;;;;;10341597;28;20226;-68
2023/01/24 15:31:56;;;;;;;8.67;5.40;;;4.00;99.90;;;;;;10354834;28;20225;-68
2023/01/24 15:37:00;;;;;;;8.77;5.83;;;4.00;99.90;;;;;;10343445;28;20221;-68
2023/01/24 15:52:46;;;;;;;8.93;6.67;;;3.90;99.90;;;;;;10346802;28;20233;-68
2023/01/24 15:57:46;;;;;;;8.53;6.47;;;3.80;99.90;;;;;;10348274;28;20323;-68
2023/01/24 16:02:47;;;;;;;8.80;6.30;;;3.80;99.90;;;;;;10343907;28;20227;-69
2023/01/24 16:07:47;;;;;;;10.67;6.30;;;3.80;99.90;;;;;;10342547;28;20667;-68
2023/01/24 16:12:50;;;;;;;9.10;5.77;;;3.80;99.90;;;;;;10347086;28;20253;-68
2023/01/24 16:17:51;;;;;;;9.47;6.83;;;3.70;99.90;;;;;;10344019;28;20256;-68
2023/01/24 16:22:52;;;;;;;8.90;6.80;;;3.70;99.90;;;;;;10348362;28;20704;-68
2023/01/24 16:27:54;;;;;;;9.83;6.37;;;3.70;99.90;;;;;;10343914;28;20261;-68
2023/01/24 16:32:55;;;;;;;7.77;6.60;;;3.70;99.90;;;;;;10348444;28;20221;-69
2023/01/24 16:37:56;;;;;;;8.87;6.90;;;3.70;99.90;;;;;;10349791;28;20672;-68
2023/01/24 16:42:57;;;;;;;9.33;6.33;;;3.70;99.90;;;;;;10342406;28;20233;-68
2023/01/24 16:47:58;;;;;;;7.67;6.07;;;3.70;99.90;;;;;;10349109;28;20328;-67
2023/01/24 16:52:59;;;;;;;8.73;6.53;;;3.60;99.90;;;;;;10347717;28;20760;-69
2023/01/24 16:58:00;;;;;;;8.03;6.37;;;3.60;99.90;;;;;;10357228;28;20231;-69
2023/01/24 17:03:01;;;;;;;9.60;6.47;;;3.60;99.90;;;;;;10350361;28;20306;-69
2023/01/24 17:08:02;;;;;;;10.33;7.00;;;3.70;99.90;;;;;;10357020;28;20237;-68
2023/01/24 17:13:04;;;;;;;10.27;6.37;;;3.80;99.90;;;;;;10349637;28;20222;-69
2023/01/24 17:18:06;;;;;;;10.13;6.13;;;3.70;99.90;;;;;;10352006;28;20712;-68
2023/01/24 17:23:06;;;;;;;9.20;5.73;;;3.70;99.90;;;;;;10363728;28;20229;-69
2023/01/24 17:28:07;;;;;;;9.30;6.13;;;3.70;99.90;;;;;;10357368;28;20772;-68
2023/01/24 17:33:07;;;;;;;8.20;5.93;;;3.70;99.90;;;;;;10349865;28;20866;-69
2023/01/24 17:38:09;;;;;;;8.67;6.70;;;3.70;99.90;;;;;;10339427;28;20231;-68
2023/01/24 17:43:13;;;;;;;8.03;6.23;;;3.60;99.90;;;;;;10355907;28;20238;-67
2023/01/24 17:48:13;;;;;;;8.27;6.27;;;3.70;99.90;;;;;;10339651;28;20233;-70
2023/01/24 17:53:15;;;;;;;9.27;6.40;;;3.70;99.90;;;;;;10355627;28;20380;-69
2023/01/24 17:58:16;;;;;;;9.80;6.43;;;3.70;99.90;;;;;;10349482;28;20685;-69
2023/01/24 18:03:16;;;;;;;8.63;6.30;;;3.70;99.90;;;;;;10337994;28;20222;-68
2023/01/24 18:08:17;;;;;;;9.07;6.43;;;3.70;99.90;;;;;;10353194;28;20747;-67
2023/01/24 18:13:18;;;;;;;8.67;6.37;;;3.70;99.90;;;;;;10338361;28;20233;-70
2023/01/24 18:18:18;;;;;;;6.93;5.37;;;3.70;99.90;;;;;;10348000;28;20272;-68
2023/01/24 18:23:19;;;;;;;8.20;5.87;;;3.70;99.90;;;;;;10354456;28;20222;-70
2023/01/24 18:28:20;;;;;;;8.07;6.40;;;3.60;99.90;;;;;;10355105;28;20727;-68
2023/01/24 18:33:20;;;;;;;7.47;5.80;;;3.60;99.90;;;;;;10356581;28;20746;-68
2023/01/24 18:38:21;;;;;;;8.30;6.10;;;3.50;99.90;;;;;;10355001;28;20276;-69
2023/01/24 18:43:21;;;;;;;7.47;6.17;;;3.50;99.90;;;;;;10344512;28;20244;-67
2023/01/24 18:48:22;;;;;;;8.03;6.17;;;3.50;99.90;;;;;;10352032;28;20233;-68
2023/01/24 18:53:22;;;;;;;7.87;6.07;;;3.50;99.90;;;;;;10351622;28;20633;-68
2023/01/24 18:58:23;;;;;;;8.23;6.50;;;3.60;99.90;;;;;;10347800;28;20584;-68
2023/01/24 19:03:24;;;;;;;8.53;6.43;;;3.60;99.90;;;;;;10350511;28;20642;-68
2023/01/24 19:08:24;;;;;;;8.10;6.50;;;3.60;99.90;;;;;;10351656;28;20233;-67
2023/01/24 19:13:25;;;;;;;8.97;6.93;;;3.60;99.90;;;;;;10353239;28;20221;-68
2023/01/24 19:18:26;;;;;;;8.87;6.40;;;3.60;99.90;;;;;;10350932;28;20693;-68
2023/01/24 19:23:26;;;;;;;7.37;6.10;;;3.60;99.90;;;;;;10346171;28;20218;-68
2023/01/24 19:28:27;;;;;;;8.87;6.37;;;3.60;99.90;;;;;;10332746;28;20300;-69
2023/01/24 19:33:28;;;;;;;7.83;6.47;;;3.50;99.90;;;;;;10337619;28;20224;-69
2023/01/24 19:38:28;;;;;;;7.27;5.87;;;3.50;99.90;;;;;;10347617;28;20665;-70
2023/01/24 19:43:29;;;;;;;6.83;5.47;;;3.50;99.90;;;;;;10347769;28;20280;-70
2023/01/24 19:48:29;;;;;;;7.30;5.93;;;3.50;99.90;;;;;;10347661;28;20240;-70
2023/01/24 19:53:31;;;;;;;7.70;6.43;;;3.50;99.90;;;;;;10343431;28;20221;-71
2023/01/24 19:58:32;;;;;;;8.40;6.43;;;3.50;99.90;;;;;;10348515;28;20636;-69
2023/01/24 20:03:33;;;;;;;8.87;6.17;;;3.50;99.90;;;;;;10338384;28;20712;-70
2023/01/24 20:08:35;;;;;;;8.13;6.10;;;3.50;99.90;;;;;;10346164;28;20722;-71
2023/01/24 20:13:35;;;;;;;9.07;7.20;;;3.50;99.90;;;;;;10337855;28;20240;-70
2023/01/24 20:18:36;;;;;;;10.80;7.47;;;3.50;99.90;;;;;;10347181;28;20216;-70
2023/01/24 20:23:38;;;;;;;9.23;7.07;;;3.50;99.90;;;;;;10347730;28;20697;-70
2023/01/24 20:28:39;;;;;;;11.17;7.60;;;3.50;99.90;;;;;;10346074;28;20266;-70
2023/01/24 20:33:40;;;;;;;10.77;8.23;;;3.50;99.90;;;;;;10341940;28;20222;-70
2023/01/24 20:38:41;;;;;;;10.13;8.53;;;3.40;99.90;;;;;;10346689;28;20225;-70
2023/01/24 20:43:42;;;;;;;9.87;7.57;;;3.50;99.90;;;;;;10354191;28;20595;-70
2023/01/24 20:48:43;;;;;;;11.00;8.37;;;3.50;99.90;;;;;;10346360;28;20875;-71
2023/01/24 20:53:44;;;;;;;9.47;7.63;;;3.50;99.90;;;;;;10355843;28;20402;-71
2023/01/24 20:58:44;;;;;;;8.23;6.63;;;3.50;99.90;;;;;;10344362;28;20693;-69
2023/01/24 21:03:46;;;;;;;10.03;7.13;;;3.50;99.90;;;;;;10345043;28;20212;-70
2023/01/24 21:08:47;;;;;;;9.00;7.07;;;3.40;99.90;;;;;;10351634;28;20308;-71
2023/01/24 21:13:56;;;;;;;8.70;7.23;;;3.40;99.90;;;;;;10335699;28;20226;-69
2023/01/24 21:19:03;;;;;;;8.63;6.67;;;3.40;99.90;;;;;;10342595;28;20309;-70
2023/01/24 21:24:11;;;;;;;9.47;7.13;;;3.20;99.90;;;;;;10349852;28;20307;-70
2023/01/24 21:29:13;;;;;;;9.87;7.33;;;3.20;99.90;;;;;;10342925;28;20719;-70
2023/01/24 21:34:14;;;;;;;9.20;7.73;;;3.30;99.90;;;;;;10339455;28;20239;-71
2023/01/24 21:39:14;;;;;;;9.70;7.57;;;3.30;99.90;;;;;;10357407;28;20797;-70
2023/01/24 21:44:15;;;;;;;8.93;7.20;;;3.40;99.90;;;;;;10345389;28;20622;-70
2023/01/24 21:49:16;;;;;;;9.63;7.43;;;3.40;99.90;;;;;;10355843;28;20750;-70
2023/01/24 21:54:25;;;;;;;11.50;8.53;;;3.40;99.90;;;;;;10350777;28;20692;-69
2023/01/24 21:59:28;;;;;;;8.90;7.13;;;3.50;99.90;;;;;;10354053;28;20226;-70
2023/01/24 22:04:30;;;;;;;8.53;7.50;;;3.40;99.90;;;;;;10350985;28;20275;-71
2023/01/24 22:09:31;;;;;;;11.40;8.97;;;3.40;99.90;;;;;;10346646;28;20224;-70
2023/01/24 22:14:33;;;;;;;9.67;7.77;;;3.40;99.90;;;;;;10353206;28;20236;-70
2023/01/24 22:19:47;;;;;;;13.20;8.50;;;3.40;99.90;;;;;;10351159;28;20213;-70
2023/01/24 22:25:05;;;;;;;10.23;8.00;;;3.30;99.90;;;;;;10356736;28;20544;-70
2023/01/24 22:30:17;;;;;;;9.13;7.70;;;3.30;99.90;;;;;;10347762;28;20210;-70
2023/01/24 22:35:21;;;;;;;11.03;8.57;;;3.30;99.90;;;;;;10349286;28;20185;-70
2023/01/24 22:40:21;;;;;;;10.87;8.33;;;3.30;99.90;;;;;;10342512;28;20339;-70
2023/01/24 22:45:26;;;;;;;11.23;8.10;;;3.30;99.90;;;;;;10353558;28;20270;-70
2023/01/24 22:50:27;;;;;;;10.97;9.07;;;3.30;99.90;;;;;;10355213;28;20229;-70
2023/01/24 22:55:27;;;;;;;12.33;9.30;;;3.30;99.90;;;;;;10348488;28;20212;-69
2023/01/24 23:00:28;;;;;;;13.07;9.73;;;3.30;99.90;;;;;;10351821;28;20670;-69
2023/01/24 23:05:29;;;;;;;13.70;9.70;;;3.20;99.90;;;;;;10354937;28;20229;-70
2023/01/24 23:10:29;;;;;;;12.63;9.47;;;3.20;99.90;;;;;;10357122;28;20215;-69
2023/01/24 23:26:08;;;;;;;11.90;9.00;;;3.30;99.90;;;;;;10346087;28;20227;-70
2023/01/24 23:31:15;;;;;;;11.73;9.50;;;3.40;99.90;;;;;;10357782;28;20217;-70
2023/01/24 23:36:15;;;;;;;10.40;8.70;;;3.30;99.90;;;;;;10352043;28;20222;-70
2023/01/24 23:41:16;;;;;;;11.20;8.30;;;3.30;99.90;;;;;;10336786;28;20225;-71
2023/01/24 23:46:16;;;;;;;10.37;8.73;;;3.30;99.90;;;;;;10334019;28;20756;-70
2023/01/24 23:51:17;;;;;;;12.50;9.23;;;3.30;99.90;;;;;;10344462;28;20219;-70
2023/01/24 23:56:18;;;;;;;10.87;8.73;;;3.20;99.90;;;;;;10351384;28;20228;-70
